createdAt,value
2022-09-13T00:02:14.182Z,10.30
2022-09-13T00:04:42.096Z,9.03
2022-09-13T00:07:09.710Z,9.17
2022-09-13T00:09:38.848Z,9.83
2022-09-13T00:12:07.896Z,11.57
2022-09-13T00:14:35.584Z,9.33
2022-09-13T00:17:03.226Z,10.43
2022-09-13T00:19:31.038Z,9.73
2022-09-13T00:21:58.779Z,13.30
2022-09-13T00:24:26.416Z,10.30
2022-09-13T00:26:55.276Z,9.97
2022-09-13T00:29:22.841Z,9.87
2022-09-13T00:31:50.487Z,16.47
2022-09-13T00:34:18.096Z,11.23
2022-09-13T00:36:45.675Z,8.13
2022-09-13T00:39:13.788Z,11.17
2022-09-13T00:41:41.561Z,10.40
2022-09-13T00:44:42.441Z,11.63
2022-09-13T00:47:12.806Z,13.07
2022-09-13T00:49:42.781Z,9.53
2022-09-13T00:52:16.244Z,11.93
2022-09-13T00:54:47.154Z,12.67
2022-09-13T00:57:16.921Z,14.60
2022-09-13T00:59:51.181Z,15.20
2022-09-13T01:02:20.736Z,12.50
2022-09-13T01:04:48.683Z,9.17
2022-09-13T01:07:18.745Z,13.77
2022-09-13T01:09:50.735Z,13.47
2022-09-13T01:12:32.034Z,12.17
2022-09-13T01:15:01.839Z,14.03
2022-09-13T01:17:33.084Z,12.33
2022-09-13T01:20:01.986Z,13.20
2022-09-13T01:22:57.970Z,13.10
2022-09-13T01:26:02.385Z,10.40
2022-09-13T01:29:05.352Z,12.70
2022-09-13T01:31:39.434Z,10.30
2022-09-13T01:34:25.105Z,12.80
2022-09-13T01:37:09.034Z,10.43
2022-09-13T01:39:57.493Z,14.73
2022-09-13T01:42:36.669Z,11.07
2022-09-13T01:45:15.049Z,16.03
2022-09-13T01:47:51.202Z,15.10
2022-09-13T01:50:25.080Z,10.00
2022-09-13T01:52:57.621Z,12.53
2022-09-13T01:55:33.994Z,15.63
2022-09-13T01:58:10.142Z,11.83
2022-09-13T02:00:42.823Z,11.77
2022-09-13T02:03:19.310Z,13.30
2022-09-13T02:05:52.810Z,13.00
2022-09-13T02:08:26.665Z,11.00
2022-09-13T02:10:59.997Z,13.43
2022-09-13T02:13:34.858Z,17.10
2022-09-13T02:16:09.438Z,14.03
2022-09-13T02:18:42.746Z,16.07
2022-09-13T02:21:14.093Z,18.10
2022-09-13T02:23:45.951Z,14.10
2022-09-13T02:26:16.465Z,10.70
2022-09-13T02:28:49.251Z,11.87
2022-09-13T02:31:20.417Z,13.40
2022-09-13T02:33:55.014Z,12.10
2022-09-13T02:36:25.662Z,17.33
2022-09-13T02:38:58.350Z,14.20
2022-09-13T02:41:32.835Z,14.60
2022-09-13T02:44:08.614Z,11.37
2022-09-13T02:46:48.272Z,12.50
2022-09-13T02:49:27.307Z,12.30
2022-09-13T02:51:58.727Z,15.03
2022-09-13T02:54:34.172Z,15.23
2022-09-13T02:57:08.386Z,16.23
2022-09-13T02:59:36.817Z,13.37
2022-09-13T03:02:07.963Z,17.03
2022-09-13T03:04:37.369Z,14.53
2022-09-13T03:07:07.631Z,12.10
2022-09-13T03:09:36.661Z,18.07
2022-09-13T03:12:30.015Z,14.83
2022-09-13T03:15:05.753Z,17.50
2022-09-13T03:17:46.463Z,14.43
2022-09-13T03:20:22.747Z,23.87
2022-09-13T03:23:11.412Z,17.00
2022-09-13T03:26:00.843Z,17.03
2022-09-13T03:28:38.619Z,13.20
2022-09-13T03:31:10.351Z,14.13
2022-09-13T03:33:45.521Z,20.77
2022-09-13T03:36:20.192Z,11.07
2022-09-13T03:38:56.833Z,16.50
2022-09-13T03:41:31.022Z,13.97
2022-09-13T03:44:02.444Z,13.97
2022-09-13T03:46:35.057Z,17.10
2022-09-13T03:49:05.922Z,12.27
2022-09-13T03:51:35.030Z,14.23
2022-09-13T03:54:06.008Z,14.90
2022-09-13T03:56:33.831Z,12.60
2022-09-13T03:59:01.531Z,15.87
2022-09-13T04:01:29.575Z,13.27
2022-09-13T04:03:57.306Z,17.90
2022-09-13T04:06:25.060Z,14.80
2022-09-13T04:08:53.990Z,15.83
2022-09-13T04:11:22.092Z,17.93
2022-09-13T04:13:49.957Z,18.77
2022-09-13T04:16:17.710Z,15.57
2022-09-13T04:18:45.311Z,14.27
2022-09-13T04:21:12.902Z,14.77
2022-09-13T04:23:40.526Z,25.83
2022-09-13T04:26:09.487Z,14.33
2022-09-13T04:28:37.170Z,16.93
2022-09-13T04:31:04.830Z,13.50
2022-09-13T04:33:32.531Z,16.33
2022-09-13T04:36:01.133Z,18.23
2022-09-13T04:38:31.347Z,11.90
2022-09-13T04:40:59.106Z,13.80
2022-09-13T04:43:28.113Z,16.10
2022-09-13T04:45:55.846Z,13.43
2022-09-13T04:48:23.454Z,13.90
2022-09-13T04:50:50.950Z,11.93
2022-09-13T04:53:18.605Z,13.37
2022-09-13T04:55:46.303Z,16.07
2022-09-13T04:58:13.803Z,11.87
2022-09-13T05:00:42.777Z,12.60
2022-09-13T05:03:10.358Z,15.00
2022-09-13T05:05:37.948Z,15.00
2022-09-13T05:08:05.557Z,15.00
2022-09-13T05:10:33.219Z,16.57
2022-09-13T05:13:01.329Z,14.10
2022-09-13T05:15:28.956Z,13.40
2022-09-13T05:17:57.915Z,14.70
2022-09-13T05:20:25.518Z,13.93
2022-09-13T05:22:53.149Z,15.03
2022-09-13T05:25:25.420Z,21.23
2022-09-13T05:27:53.556Z,18.60
2022-09-13T05:30:21.515Z,18.30
2022-09-13T05:32:49.122Z,12.10
2022-09-13T05:35:18.024Z,17.30
2022-09-13T05:37:45.652Z,17.67
2022-09-13T05:40:13.546Z,21.97
2022-09-13T05:42:41.246Z,26.93
2022-09-13T05:45:10.348Z,35.83
2022-09-13T05:47:37.987Z,21.97
2022-09-13T05:50:11.862Z,27.87
2022-09-13T05:52:42.479Z,21.10
2022-09-13T05:55:10.696Z,31.97
2022-09-13T05:57:38.505Z,11.70
2022-09-13T06:00:06.923Z,16.17
2022-09-13T06:02:34.693Z,14.13
2022-09-13T06:05:02.410Z,14.20
2022-09-13T06:07:30.207Z,17.33
2022-09-13T06:09:59.190Z,22.20
2022-09-13T06:12:27.088Z,14.30
2022-09-13T06:14:54.840Z,18.00
2022-09-13T06:17:22.431Z,12.17
2022-09-13T06:19:50.137Z,13.33
2022-09-13T06:22:17.807Z,12.63
2022-09-13T06:24:45.473Z,16.60
2022-09-13T06:27:14.417Z,11.37
2022-09-13T06:29:42.086Z,12.03
2022-09-13T06:32:10.895Z,11.80
2022-09-13T06:34:38.487Z,17.57
2022-09-13T06:37:06.698Z,14.20
2022-09-13T06:39:34.298Z,9.80
2022-09-13T06:42:02.142Z,12.80
2022-09-13T06:44:31.173Z,23.97
2022-09-13T06:46:58.852Z,20.30
2022-09-13T06:49:29.105Z,15.73
2022-09-13T06:51:56.743Z,11.60
2022-09-13T06:54:24.332Z,16.93
2022-09-13T06:56:52.036Z,13.70
2022-09-13T06:59:19.902Z,9.80
2022-09-13T07:01:49.145Z,14.73
2022-09-13T07:04:19.391Z,16.90
2022-09-13T07:06:48.828Z,17.33
2022-09-13T07:09:18.282Z,16.20
2022-09-13T07:11:47.146Z,11.27
2022-09-13T07:14:16.108Z,9.77
2022-09-13T07:16:43.995Z,12.13
2022-09-13T07:19:16.491Z,11.23
2022-09-13T07:21:45.021Z,16.27
2022-09-13T07:24:13.304Z,15.23
2022-09-13T07:26:40.915Z,12.67
2022-09-13T07:29:11.919Z,12.80
2022-09-13T07:31:41.060Z,17.97
2022-09-13T07:34:13.611Z,13.00
2022-09-13T07:36:43.520Z,15.57
2022-09-13T07:39:15.100Z,15.50
2022-09-13T07:41:46.421Z,15.20
2022-09-13T07:44:14.532Z,19.73
2022-09-13T07:46:43.638Z,13.27
2022-09-13T07:49:14.150Z,16.90
2022-09-13T07:51:47.241Z,22.70
2022-09-13T07:54:17.574Z,13.73
2022-09-13T07:56:45.699Z,18.90
2022-09-13T07:59:15.137Z,18.27
2022-09-13T08:01:44.516Z,14.77
2022-09-13T08:04:14.165Z,16.17
2022-09-13T08:06:43.524Z,14.20
2022-09-13T08:09:12.044Z,13.80
2022-09-13T08:11:41.422Z,15.40
2022-09-13T08:14:12.182Z,17.17
2022-09-13T08:16:40.514Z,20.93
2022-09-13T08:19:13.219Z,20.17
2022-09-13T08:21:43.539Z,18.40
2022-09-13T08:24:15.854Z,22.17
2022-09-13T08:26:43.672Z,19.60
2022-09-13T08:29:13.433Z,20.40
2022-09-13T08:31:41.022Z,12.17
2022-09-13T08:34:12.586Z,11.53
2022-09-13T08:36:41.113Z,10.03
2022-09-13T08:39:10.857Z,9.67
2022-09-13T08:42:04.092Z,12.93
2022-09-13T08:44:35.022Z,10.00
2022-09-13T08:47:16.439Z,12.30
2022-09-13T08:49:47.812Z,13.10
2022-09-13T08:52:26.437Z,9.43
2022-09-13T08:54:58.350Z,16.70
2022-09-13T08:57:33.076Z,15.27
2022-09-13T09:00:07.853Z,18.23
2022-09-13T09:02:57.642Z,12.20
2022-09-13T09:05:28.203Z,12.53
2022-09-13T09:08:00.724Z,11.73
2022-09-13T09:10:33.419Z,11.23
2022-09-13T09:13:07.442Z,12.90
2022-09-13T09:15:38.066Z,16.43
2022-09-13T09:18:11.876Z,8.13
2022-09-13T09:20:43.864Z,10.33
2022-09-13T09:23:21.131Z,12.20
2022-09-13T09:25:52.891Z,12.53
2022-09-13T09:28:20.939Z,14.70
2022-09-13T09:30:59.478Z,14.43
2022-09-13T09:33:51.171Z,17.50
2022-09-13T09:36:29.573Z,15.27
2022-09-13T09:38:58.006Z,16.33
2022-09-13T09:41:31.534Z,17.80
2022-09-13T09:44:15.708Z,15.60
2022-09-13T09:46:45.009Z,13.53
2022-09-13T09:49:32.025Z,12.57
2022-09-13T09:52:01.235Z,12.67
2022-09-13T09:57:14.784Z,13.80
2022-09-13T09:59:42.376Z,19.70
2022-09-13T10:02:17.704Z,14.33
2022-09-13T10:04:57.095Z,17.43
2022-09-13T10:07:30.260Z,15.37
2022-09-13T10:10:01.279Z,14.97
2022-09-13T10:12:33.955Z,20.17
2022-09-13T10:15:17.881Z,13.07
2022-09-13T10:18:02.778Z,13.87
2022-09-13T10:20:31.375Z,16.20
2022-09-13T10:23:26.478Z,12.30
2022-09-13T10:26:02.392Z,13.50
2022-09-13T10:28:34.812Z,11.77
2022-09-13T10:31:06.669Z,11.50
2022-09-13T10:33:38.072Z,15.37
2022-09-13T10:36:09.544Z,15.37
2022-09-13T10:38:42.986Z,14.63
2022-09-13T10:41:24.064Z,15.73
2022-09-13T10:43:58.131Z,13.10
2022-09-13T10:46:26.276Z,15.03
2022-09-13T10:48:56.063Z,13.40
2022-09-13T10:51:36.731Z,23.70
2022-09-13T10:54:21.057Z,20.67
2022-09-13T10:56:49.440Z,14.97
2022-09-13T10:59:29.528Z,19.17
2022-09-13T11:02:20.158Z,16.13
2022-09-13T11:05:06.258Z,13.80
2022-09-13T11:07:58.734Z,17.33
2022-09-13T11:10:33.628Z,12.90
2022-09-13T11:13:08.918Z,17.40
2022-09-13T11:15:48.951Z,12.73
2022-09-13T11:18:45.047Z,15.60
2022-09-13T11:21:25.555Z,14.60
2022-09-13T11:24:17.135Z,14.20
2022-09-13T11:26:57.046Z,16.97
2022-09-13T11:29:35.981Z,13.03
2022-09-13T11:32:18.708Z,15.20
2022-09-13T11:35:08.293Z,12.30
2022-09-13T11:37:46.307Z,19.27
2022-09-13T11:40:30.817Z,14.97
2022-09-13T11:43:11.125Z,16.57
2022-09-13T11:45:46.603Z,21.33
2022-09-13T11:48:35.721Z,20.93
2022-09-13T11:51:10.377Z,21.33
2022-09-13T11:53:55.407Z,11.43
2022-09-13T11:56:29.168Z,17.53
2022-09-13T11:59:03.998Z,9.77
2022-09-13T12:01:38.226Z,10.90
2022-09-13T12:04:14.726Z,12.23
2022-09-13T12:06:48.105Z,14.00
2022-09-13T12:09:20.652Z,15.93
2022-09-13T12:11:52.684Z,12.33
2022-09-13T12:14:24.442Z,8.83
2022-09-13T12:16:55.883Z,9.43
2022-09-13T12:19:28.262Z,12.87
2022-09-13T12:21:59.156Z,13.50
2022-09-13T12:24:35.868Z,20.90
2022-09-13T12:27:09.026Z,14.57
2022-09-13T12:29:41.713Z,7.70
2022-09-13T12:32:11.206Z,10.50
2022-09-13T12:34:46.635Z,10.80
2022-09-13T12:37:39.332Z,9.07
2022-09-13T12:40:31.465Z,9.70
2022-09-13T12:43:11.610Z,8.47
2022-09-13T12:45:58.342Z,9.57
2022-09-13T12:48:50.257Z,7.80
2022-09-13T12:51:32.157Z,8.57
2022-09-13T12:54:33.618Z,9.23
2022-09-13T12:57:17.291Z,9.20
2022-09-13T13:00:13.438Z,8.60
2022-09-13T13:02:45.118Z,8.10
2022-09-13T13:05:25.794Z,9.97
2022-09-13T13:07:57.610Z,8.37
2022-09-13T13:10:32.388Z,10.37
2022-09-13T13:13:15.292Z,11.23
2022-09-13T13:15:59.741Z,9.70
2022-09-13T13:18:30.729Z,7.90
2022-09-13T13:21:40.289Z,11.40
2022-09-13T13:24:45.332Z,9.40
2022-09-13T13:27:38.180Z,8.70
2022-09-13T13:30:41.714Z,11.90
2022-09-13T13:33:28.595Z,11.00
2022-09-13T13:35:56.568Z,9.03
2022-09-13T13:38:49.461Z,12.63
2022-09-13T13:41:53.427Z,13.17
2022-09-13T13:44:57.821Z,9.47
2022-09-13T13:48:08.151Z,11.73
2022-09-13T13:50:39.250Z,9.70
2022-09-13T13:53:23.809Z,10.50
2022-09-13T13:56:09.170Z,11.70
2022-09-13T13:58:48.014Z,11.27
2022-09-13T14:01:21.994Z,13.90
2022-09-13T14:03:59.976Z,10.43
2022-09-13T14:06:33.497Z,11.27
2022-09-13T14:09:07.374Z,8.63
2022-09-13T14:11:47.892Z,7.27
2022-09-13T14:14:29.789Z,13.20
2022-09-13T14:17:23.776Z,12.70
2022-09-13T14:19:54.008Z,9.40
2022-09-13T14:22:23.867Z,10.53
2022-09-13T14:24:53.592Z,9.13
2022-09-13T14:27:24.142Z,11.07
2022-09-13T14:29:55.029Z,6.07
2022-09-13T14:32:29.310Z,8.50
2022-09-13T14:35:02.719Z,7.63
2022-09-13T14:37:32.471Z,8.87
2022-09-13T14:40:03.156Z,7.47
2022-09-13T14:42:40.604Z,12.13
2022-09-13T14:45:14.172Z,11.53
2022-09-13T14:47:50.225Z,10.23
2022-09-13T14:50:21.807Z,13.93
2022-09-13T14:52:53.006Z,11.63
2022-09-13T14:55:25.704Z,14.97
2022-09-13T14:57:58.488Z,10.43
2022-09-13T15:00:27.585Z,12.87
2022-09-13T15:02:59.729Z,8.53
2022-09-13T15:05:30.970Z,6.83
2022-09-13T15:07:59.649Z,10.20
2022-09-13T15:10:30.088Z,13.10
2022-09-13T15:13:09.118Z,11.20
2022-09-13T15:15:39.034Z,7.77
2022-09-13T15:18:25.667Z,12.53
2022-09-13T15:20:55.418Z,9.27
2022-09-13T15:23:26.087Z,8.83
2022-09-13T15:25:56.245Z,6.87
2022-09-13T15:28:27.039Z,11.90
2022-09-13T15:30:56.337Z,15.20
2022-09-13T15:33:28.915Z,9.03
2022-09-13T15:36:17.517Z,7.93
2022-09-13T15:39:00.401Z,7.80
2022-09-13T15:41:32.294Z,9.87
2022-09-13T15:44:01.110Z,11.33
2022-09-13T15:46:29.567Z,8.80
2022-09-13T15:49:01.714Z,9.03
2022-09-13T15:51:36.826Z,17.00
2022-09-13T15:54:11.546Z,13.03
2022-09-13T15:56:40.905Z,9.73
2022-09-13T15:59:10.046Z,11.57
2022-09-13T16:01:37.685Z,8.77
2022-09-13T16:04:07.598Z,9.03
2022-09-13T16:06:35.195Z,11.43
2022-09-13T16:09:02.997Z,12.70
2022-09-13T16:11:30.549Z,9.50
2022-09-13T16:13:58.172Z,11.43
2022-09-13T16:16:25.879Z,10.00
2022-09-13T16:18:53.507Z,10.63
2022-09-13T16:21:22.575Z,9.47
2022-09-13T16:23:50.464Z,11.00
2022-09-13T16:26:18.266Z,9.57
2022-09-13T16:28:45.854Z,12.13
2022-09-13T16:31:14.858Z,9.43
2022-09-13T16:33:42.421Z,10.43
2022-09-13T16:36:12.609Z,10.60
2022-09-13T16:38:41.940Z,14.40
2022-09-13T16:41:09.592Z,12.23
2022-09-13T16:43:37.173Z,14.47
2022-09-13T16:46:08.032Z,10.00
2022-09-13T16:48:36.772Z,16.47
2022-09-13T16:51:04.960Z,11.20
2022-09-13T16:53:34.879Z,16.10
2022-09-13T16:56:08.278Z,14.20
2022-09-13T16:58:37.499Z,12.33
2022-09-13T17:01:05.796Z,9.90
2022-09-13T17:03:36.005Z,9.17
2022-09-13T17:06:05.458Z,10.57
2022-09-13T17:08:34.056Z,10.60
2022-09-13T17:11:05.379Z,13.10
2022-09-13T17:13:34.880Z,12.83
2022-09-13T17:16:03.030Z,11.20
2022-09-13T17:18:30.791Z,12.17
2022-09-13T17:21:00.768Z,12.90
2022-09-13T17:23:28.497Z,9.37
2022-09-13T17:25:56.168Z,10.30
2022-09-13T17:28:23.895Z,10.83
2022-09-13T17:30:52.873Z,12.97
2022-09-13T17:33:20.664Z,14.03
2022-09-13T17:35:48.254Z,13.90
2022-09-13T17:38:16.221Z,11.10
2022-09-13T17:40:43.830Z,12.30
2022-09-13T17:43:17.487Z,11.30
2022-09-13T17:45:49.187Z,13.70
2022-09-13T17:48:18.459Z,16.43
2022-09-13T17:50:46.151Z,15.60
2022-09-13T17:53:14.047Z,14.57
2022-09-13T17:55:48.006Z,17.07
2022-09-13T17:58:17.268Z,19.70
2022-09-13T18:00:45.122Z,10.10
2022-09-13T18:03:12.922Z,13.63
2022-09-13T18:05:42.015Z,11.40
2022-09-13T18:08:09.602Z,14.67
2022-09-13T18:10:58.333Z,11.83
2022-09-13T18:13:26.175Z,20.90
2022-09-13T18:16:00.927Z,20.07
2022-09-13T18:18:29.023Z,16.97
2022-09-13T18:20:58.717Z,16.93
2022-09-13T18:23:28.584Z,13.57
2022-09-13T18:26:02.965Z,14.50
2022-09-13T18:28:32.048Z,13.87
2022-09-13T18:31:01.852Z,14.87
2022-09-13T18:33:30.197Z,15.30
2022-09-13T18:36:01.283Z,17.07
2022-09-13T18:38:29.881Z,16.40
2022-09-13T18:41:02.494Z,14.50
2022-09-13T18:43:30.520Z,27.70
2022-09-13T18:45:59.471Z,29.13
2022-09-13T18:48:30.326Z,30.80
2022-09-13T18:50:58.211Z,24.40
2022-09-13T18:53:34.426Z,20.27
2022-09-13T18:56:03.763Z,23.57
2022-09-13T18:58:32.098Z,22.50
2022-09-13T19:01:07.709Z,29.83
2022-09-13T19:03:36.219Z,21.00
2022-09-13T19:06:14.893Z,23.73
2022-09-13T19:08:47.358Z,25.70
2022-09-13T19:11:35.620Z,38.60
2022-09-13T19:14:07.327Z,26.63
2022-09-13T19:16:36.135Z,24.33
2022-09-13T19:19:03.796Z,22.90
2022-09-13T19:21:33.771Z,22.57
2022-09-13T19:24:10.822Z,26.23
2022-09-13T19:26:40.888Z,19.57
2022-09-13T19:29:11.760Z,19.70
2022-09-13T19:31:41.450Z,19.90
2022-09-13T19:34:10.198Z,18.10
2022-09-13T19:36:40.003Z,17.80
2022-09-13T19:39:09.034Z,22.13
2022-09-13T19:41:38.192Z,28.40
2022-09-13T19:44:07.035Z,21.40
2022-09-13T19:46:37.349Z,18.50
2022-09-13T19:49:08.250Z,19.87
2022-09-13T19:51:38.199Z,27.03
2022-09-13T19:54:07.543Z,22.80
2022-09-13T19:56:39.297Z,35.20
2022-09-13T19:59:08.536Z,32.60
2022-09-13T20:01:38.223Z,24.87
2022-09-13T20:04:08.421Z,27.07
2022-09-13T20:06:37.804Z,27.93
2022-09-13T20:09:05.866Z,20.93
2022-09-13T20:11:37.608Z,24.30
2022-09-13T20:14:09.008Z,24.83
2022-09-13T20:16:41.094Z,19.17
2022-09-13T20:19:29.649Z,19.87
2022-09-13T20:21:56.713Z,22.23
2022-09-13T20:24:24.272Z,22.67
2022-09-13T20:26:52.177Z,21.80
2022-09-13T20:29:24.689Z,25.03
2022-09-13T20:31:52.300Z,22.13
2022-09-13T20:34:20.164Z,18.63
2022-09-13T20:36:48.063Z,21.53
2022-09-13T20:39:16.231Z,25.90
2022-09-13T20:41:45.079Z,22.97
2022-09-13T20:44:12.709Z,21.57
2022-09-13T20:46:43.563Z,22.40
2022-09-13T20:49:13.780Z,21.17
2022-09-13T20:51:41.438Z,24.23
2022-09-13T20:54:09.397Z,22.30
2022-09-13T20:56:37.058Z,21.23
2022-09-13T20:59:05.572Z,20.30
2022-09-13T21:01:34.103Z,32.00
2022-09-13T21:04:03.828Z,28.40
2022-09-13T21:07:00.407Z,23.00
2022-09-13T21:09:27.347Z,28.93
2022-09-13T21:11:54.950Z,34.90
2022-09-13T21:14:22.712Z,46.33
2022-09-13T21:16:51.529Z,44.03
2022-09-13T21:19:20.518Z,39.10
2022-09-13T21:21:48.537Z,41.40
2022-09-13T21:24:16.196Z,44.50
2022-09-13T21:26:43.715Z,41.37
2022-09-13T21:29:12.525Z,32.20
2022-09-13T21:31:43.062Z,26.73
2022-09-13T21:34:15.043Z,31.30
2022-09-13T21:36:44.920Z,37.43
2022-09-13T21:39:12.803Z,30.97
2022-09-13T21:41:41.724Z,33.10
2022-09-13T21:44:09.701Z,32.60
2022-09-13T21:46:39.172Z,28.50
2022-09-13T21:49:09.068Z,30.93
2022-09-13T21:51:38.609Z,34.30
2022-09-13T21:54:11.500Z,32.23
2022-09-13T21:56:40.899Z,30.63
2022-09-13T21:59:12.587Z,37.10
2022-09-13T22:01:41.922Z,32.40
2022-09-13T22:04:12.340Z,35.03
2022-09-13T22:06:40.039Z,33.10
2022-09-13T22:09:10.631Z,34.80
2022-09-13T22:11:41.140Z,29.20
2022-09-13T22:14:11.991Z,27.53
2022-09-13T22:16:41.555Z,26.87
2022-09-13T22:19:12.946Z,32.20
2022-09-13T22:21:42.663Z,28.63
2022-09-13T22:24:18.201Z,28.97
2022-09-13T22:26:47.678Z,28.30
2022-09-13T22:29:16.059Z,36.70
2022-09-13T22:31:46.425Z,29.67
2022-09-13T22:34:16.607Z,33.20
2022-09-13T22:36:44.950Z,32.53
2022-09-13T22:39:16.750Z,27.70
2022-09-13T22:41:45.154Z,23.80
2022-09-13T22:44:13.421Z,30.50
2022-09-13T22:46:42.427Z,27.87
2022-09-13T22:49:13.403Z,30.20
2022-09-13T22:51:40.956Z,27.00
2022-09-13T22:54:11.289Z,27.17
2022-09-13T22:56:40.438Z,28.40
2022-09-13T22:59:10.052Z,22.63
2022-09-13T23:01:38.491Z,28.10
2022-09-13T23:04:07.109Z,26.63
2022-09-13T23:06:38.418Z,26.60
2022-09-13T23:09:16.668Z,29.57
2022-09-13T23:11:46.470Z,22.20
2022-09-13T23:14:17.075Z,25.67
2022-09-13T23:16:46.692Z,23.60
2022-09-13T23:19:18.063Z,23.20
2022-09-13T23:21:46.282Z,25.07
2022-09-13T23:24:15.621Z,24.97
2022-09-13T23:26:45.585Z,21.33
2022-09-13T23:29:15.121Z,24.60
2022-09-13T23:31:43.607Z,22.90
2022-09-13T23:34:14.830Z,22.90
2022-09-13T23:36:44.391Z,22.10
2022-09-13T23:39:16.359Z,20.63
2022-09-13T23:41:47.414Z,23.20
2022-09-13T23:44:17.097Z,22.17
2022-09-13T23:46:47.835Z,28.17
2022-09-13T23:49:15.743Z,28.00
2022-09-13T23:51:43.647Z,19.90
2022-09-13T23:54:13.209Z,24.27
2022-09-13T23:56:40.968Z,22.03
2022-09-13T23:59:12.857Z,19.40
